createdAt,value
2023-01-26T00:02:09.885Z,11.83
2023-01-26T00:04:37.273Z,12.67
2023-01-26T00:07:04.794Z,12.73
2023-01-26T00:09:32.278Z,12.97
2023-01-26T00:11:59.739Z,11.53
2023-01-26T00:14:27.192Z,11.67
2023-01-26T00:16:54.705Z,11.93
2023-01-26T00:19:23.498Z,11.40
2023-01-26T00:21:50.947Z,11.87
2023-01-26T00:24:18.544Z,12.33
2023-01-26T00:26:45.952Z,11.60
2023-01-26T00:29:13.361Z,12.60
2023-01-26T00:31:40.891Z,12.43
2023-01-26T00:34:08.385Z,12.73
2023-01-26T00:36:37.643Z,14.10
2023-01-26T00:39:05.145Z,12.43
2023-01-26T00:41:50.466Z,14.07
2023-01-26T00:44:18.060Z,13.33
2023-01-26T00:46:45.551Z,11.80
2023-01-26T00:49:13.016Z,12.13
2023-01-26T00:51:41.968Z,12.47
2023-01-26T00:54:09.601Z,13.07
2023-01-26T00:56:37.071Z,13.23
2023-01-26T00:59:05.925Z,13.37
2023-01-26T01:01:33.419Z,13.50
2023-01-26T01:04:00.843Z,12.37
2023-01-26T01:06:28.259Z,12.83
2023-01-26T01:08:57.145Z,13.23
2023-01-26T01:11:24.864Z,13.17
2023-01-26T01:13:52.410Z,12.90
2023-01-26T01:16:19.825Z,13.63
2023-01-26T01:18:47.316Z,13.07
2023-01-26T01:21:15.635Z,11.97
2023-01-26T01:23:43.402Z,12.67
2023-01-26T01:26:12.814Z,12.27
2023-01-26T01:28:40.586Z,11.83
2023-01-26T01:31:08.682Z,12.07
2023-01-26T01:33:36.160Z,12.83
2023-01-26T01:36:04.858Z,12.53
2023-01-26T01:38:32.621Z,12.10
2023-01-26T01:41:00.234Z,12.10
2023-01-26T01:43:29.630Z,13.13
2023-01-26T01:45:57.454Z,12.90
2023-01-26T01:48:26.420Z,14.13
2023-01-26T01:50:56.091Z,14.23
2023-01-26T01:53:25.667Z,14.27
2023-01-26T01:55:56.783Z,13.77
2023-01-26T01:58:24.406Z,13.53
2023-01-26T02:00:53.285Z,13.80
2023-01-26T02:03:21.397Z,14.60
2023-01-26T02:06:00.992Z,14.00
2023-01-26T02:08:30.753Z,13.93
2023-01-26T02:11:00.484Z,13.70
2023-01-26T02:13:28.418Z,14.13
2023-01-26T02:15:59.063Z,14.53
2023-01-26T02:18:26.651Z,14.73
2023-01-26T02:20:56.153Z,14.43
2023-01-26T02:23:27.645Z,13.80
2023-01-26T02:26:07.128Z,14.00
2023-01-26T02:28:34.707Z,14.30
2023-01-26T02:31:02.599Z,12.10
2023-01-26T02:33:31.775Z,13.83
2023-01-26T02:35:59.573Z,13.40
2023-01-26T02:38:29.551Z,13.50
2023-01-26T02:40:59.474Z,12.63
2023-01-26T02:43:27.945Z,14.07
2023-01-26T02:45:55.459Z,13.27
2023-01-26T02:48:37.300Z,14.40
2023-01-26T02:51:05.256Z,16.20
2023-01-26T02:53:33.025Z,14.97
2023-01-26T02:55:59.665Z,15.80
2023-01-26T02:58:28.458Z,14.90
2023-01-26T03:00:55.971Z,18.03
2023-01-26T03:03:25.162Z,16.43
2023-01-26T03:05:52.961Z,15.53
2023-01-26T03:08:20.489Z,15.40
2023-01-26T03:10:48.014Z,16.40
2023-01-26T03:13:15.470Z,15.83
2023-01-26T03:15:52.671Z,16.17
2023-01-26T03:18:38.408Z,16.97
2023-01-26T03:21:39.268Z,16.17
2023-01-26T03:24:24.597Z,15.03
2023-01-26T03:27:09.594Z,13.80
2023-01-26T03:29:37.002Z,13.77
2023-01-26T03:32:06.317Z,14.63
2023-01-26T03:34:33.771Z,13.60
2023-01-26T03:37:01.279Z,13.43
2023-01-26T03:39:45.953Z,12.20
2023-01-26T03:42:31.085Z,12.77
2023-01-26T03:45:15.976Z,13.10
2023-01-26T03:48:02.259Z,13.87
2023-01-26T03:50:47.403Z,12.23
2023-01-26T03:53:33.457Z,12.10
2023-01-26T03:56:18.360Z,11.60
2023-01-26T03:58:45.911Z,11.73
2023-01-26T04:01:20.051Z,12.33
2023-01-26T04:04:08.102Z,12.50
2023-01-26T04:06:53.681Z,12.13
2023-01-26T04:09:21.509Z,11.67
2023-01-26T04:11:49.026Z,12.40
2023-01-26T04:14:38.119Z,11.23
2023-01-26T04:17:34.439Z,10.73
2023-01-26T04:20:20.788Z,11.83
2023-01-26T04:22:48.338Z,11.50
2023-01-26T04:25:17.941Z,11.20
2023-01-26T04:27:46.089Z,12.33
2023-01-26T04:30:14.966Z,12.80
2023-01-26T04:32:42.432Z,12.17
2023-01-26T04:35:11.842Z,9.87
2023-01-26T04:37:39.899Z,10.63
2023-01-26T04:40:08.267Z,9.97
2023-01-26T04:42:35.861Z,10.43
2023-01-26T04:45:03.555Z,10.43
2023-01-26T04:47:30.961Z,9.40
2023-01-26T04:49:59.260Z,10.37
2023-01-26T04:53:16.235Z,9.97
2023-01-26T04:55:45.058Z,8.87
2023-01-26T04:58:12.700Z,9.00
2023-01-26T05:00:40.128Z,9.47
2023-01-26T05:03:10.128Z,9.53
2023-01-26T05:05:38.360Z,9.93
2023-01-26T05:08:06.572Z,9.57
2023-01-26T05:10:34.349Z,9.23
2023-01-26T05:13:03.270Z,9.37
2023-01-26T05:15:30.874Z,10.07
2023-01-26T05:17:58.942Z,9.80
2023-01-26T05:20:26.391Z,10.37
2023-01-26T05:22:54.059Z,9.87
2023-01-26T05:25:21.543Z,10.20
2023-01-26T05:27:49.125Z,9.80
2023-01-26T05:30:18.376Z,10.27
2023-01-26T05:32:45.925Z,10.77
2023-01-26T05:35:13.347Z,10.27
2023-01-26T05:37:42.257Z,9.97
2023-01-26T05:40:11.079Z,9.37
2023-01-26T05:42:39.131Z,10.33
2023-01-26T05:45:09.774Z,9.17
2023-01-26T05:47:38.634Z,8.73
2023-01-26T05:50:06.867Z,9.37
2023-01-26T05:52:34.490Z,9.63
2023-01-26T05:55:01.950Z,10.03
2023-01-26T05:57:29.429Z,9.30
2023-01-26T05:59:57.256Z,9.50
2023-01-26T06:02:27.122Z,10.57
2023-01-26T06:04:56.153Z,9.77
2023-01-26T06:07:44.347Z,9.83
2023-01-26T06:10:14.898Z,9.33
2023-01-26T06:12:42.989Z,9.67
2023-01-26T06:15:12.395Z,9.43
2023-01-26T06:17:39.984Z,8.30
2023-01-26T06:20:12.525Z,8.30
2023-01-26T06:22:40.305Z,9.63
2023-01-26T06:25:10.177Z,9.20
2023-01-26T06:27:42.179Z,8.83
2023-01-26T06:30:11.014Z,8.53
2023-01-26T06:32:39.043Z,8.50
2023-01-26T06:35:08.829Z,8.27
2023-01-26T06:37:37.781Z,7.80
2023-01-26T06:40:05.800Z,8.17
2023-01-26T06:42:33.745Z,8.63
2023-01-26T06:45:01.360Z,9.87
2023-01-26T06:47:45.522Z,9.97
2023-01-26T06:50:13.324Z,9.90
2023-01-26T06:52:42.758Z,9.37
2023-01-26T06:55:18.351Z,9.47
2023-01-26T06:57:45.929Z,8.53
2023-01-26T07:00:31.511Z,7.53
2023-01-26T07:02:58.997Z,8.20
2023-01-26T07:05:27.673Z,8.97
2023-01-26T07:07:56.648Z,9.43
2023-01-26T07:10:24.233Z,9.67
2023-01-26T07:12:51.800Z,10.73
2023-01-26T07:15:19.461Z,10.43
2023-01-26T07:17:47.083Z,10.23
2023-01-26T07:20:14.587Z,9.23
2023-01-26T07:22:42.488Z,10.37
2023-01-26T07:25:11.984Z,8.87
2023-01-26T07:27:39.513Z,8.60
2023-01-26T07:30:07.823Z,8.97
2023-01-26T07:32:35.506Z,9.60
2023-01-26T07:35:03.164Z,8.53
2023-01-26T07:37:30.854Z,8.60
2023-01-26T07:39:58.356Z,9.27
2023-01-26T07:42:27.467Z,9.77
2023-01-26T07:44:55.111Z,8.30
2023-01-26T07:47:22.945Z,9.37
2023-01-26T07:49:50.654Z,10.73
2023-01-26T07:52:18.242Z,10.53
2023-01-26T07:54:45.838Z,8.80
2023-01-26T07:57:13.473Z,9.23
2023-01-26T07:59:42.472Z,8.93
2023-01-26T08:02:11.013Z,8.70
2023-01-26T08:04:38.770Z,9.33
2023-01-26T08:07:06.249Z,10.00
2023-01-26T08:09:33.852Z,10.33
2023-01-26T08:12:01.823Z,9.73
2023-01-26T08:14:41.688Z,16.07
2023-01-26T08:17:16.201Z,11.60
2023-01-26T08:19:43.799Z,9.30
2023-01-26T08:22:11.359Z,10.07
2023-01-26T08:24:38.926Z,12.03
2023-01-26T08:27:06.504Z,14.20
2023-01-26T08:29:34.097Z,12.70
2023-01-26T08:32:01.846Z,9.67
2023-01-26T08:34:30.891Z,8.37
2023-01-26T08:36:58.417Z,8.43
2023-01-26T08:39:25.928Z,8.13
2023-01-26T08:41:53.396Z,8.10
2023-01-26T08:44:20.949Z,8.13
2023-01-26T08:46:48.522Z,7.97
2023-01-26T08:49:18.447Z,7.43
2023-01-26T08:51:47.425Z,7.07
2023-01-26T08:54:14.944Z,7.43
2023-01-26T08:56:42.620Z,7.00
2023-01-26T08:59:10.205Z,8.63
2023-01-26T09:01:37.728Z,7.97
2023-01-26T09:04:05.283Z,8.27
2023-01-26T09:06:33.208Z,8.53
2023-01-26T09:09:02.099Z,8.33
2023-01-26T09:11:29.757Z,7.57
2023-01-26T09:13:57.464Z,8.63
2023-01-26T09:16:25.709Z,7.80
2023-01-26T09:18:53.760Z,7.90
2023-01-26T09:21:22.036Z,7.97
2023-01-26T09:23:49.664Z,7.60
2023-01-26T09:26:18.940Z,8.83
2023-01-26T09:28:46.427Z,7.90
2023-01-26T09:31:14.080Z,6.57
2023-01-26T09:33:43.505Z,7.83
2023-01-26T09:36:12.406Z,7.13
2023-01-26T09:38:40.073Z,7.80
2023-01-26T09:41:09.839Z,7.63
2023-01-26T09:43:41.673Z,7.57
2023-01-26T09:46:16.429Z,7.47
2023-01-26T09:48:50.373Z,7.40
2023-01-26T09:51:20.398Z,7.00
2023-01-26T09:53:51.698Z,7.30
2023-01-26T09:56:19.952Z,7.40
2023-01-26T09:58:52.291Z,7.73
2023-01-26T10:01:22.782Z,7.50
2023-01-26T10:03:52.318Z,7.17
2023-01-26T10:06:22.619Z,7.47
2023-01-26T10:08:50.589Z,7.63
2023-01-26T10:11:20.790Z,7.93
2023-01-26T10:13:52.591Z,6.87
2023-01-26T10:16:24.367Z,7.23
2023-01-26T10:18:54.962Z,13.97
2023-01-26T10:21:24.343Z,7.97
2023-01-26T10:23:52.931Z,5.30
2023-01-26T10:26:21.278Z,6.90
2023-01-26T10:28:49.562Z,7.00
2023-01-26T10:31:19.516Z,6.83
2023-01-26T10:33:51.017Z,6.00
2023-01-26T10:36:18.729Z,5.07
2023-01-26T10:38:46.993Z,5.07
2023-01-26T10:41:30.044Z,5.47
2023-01-26T10:43:58.658Z,5.10
2023-01-26T10:46:28.826Z,4.87
2023-01-26T10:48:57.043Z,4.40
2023-01-26T10:51:26.112Z,5.90
2023-01-26T10:54:08.649Z,8.10
2023-01-26T10:56:37.322Z,7.03
2023-01-26T10:59:09.616Z,8.47
2023-01-26T11:04:31.693Z,7.20
2023-01-26T11:07:14.222Z,7.33
2023-01-26T11:09:41.792Z,8.30
2023-01-26T11:12:18.559Z,7.67
2023-01-26T11:15:00.120Z,7.50
2023-01-26T11:17:28.346Z,8.10
2023-01-26T11:20:04.272Z,8.50
2023-01-26T11:22:34.998Z,7.90
2023-01-26T11:25:09.133Z,7.13
2023-01-26T11:27:42.205Z,8.00
2023-01-26T11:30:28.502Z,7.63
2023-01-26T11:32:59.448Z,6.80
2023-01-26T11:35:33.255Z,8.60
2023-01-26T11:38:09.629Z,9.23
2023-01-26T11:40:41.767Z,6.97
2023-01-26T11:43:27.856Z,8.30
2023-01-26T11:46:17.385Z,8.50
2023-01-26T11:48:49.589Z,9.13
2023-01-26T11:51:22.363Z,8.50
2023-01-26T11:54:00.428Z,7.40
2023-01-26T11:56:34.613Z,8.13
2023-01-26T11:59:04.541Z,7.30
2023-01-26T12:01:36.475Z,7.67
2023-01-26T12:04:04.084Z,9.23
2023-01-26T12:06:43.651Z,8.97
2023-01-26T12:09:18.971Z,8.63
2023-01-26T12:11:50.698Z,8.73
2023-01-26T12:14:23.026Z,8.20
2023-01-26T12:17:17.733Z,9.83
2023-01-26T12:19:49.034Z,9.73
2023-01-26T12:22:21.075Z,7.80
2023-01-26T12:25:17.619Z,9.20
2023-01-26T12:27:41.874Z,9.10
2023-01-26T12:30:20.455Z,9.53
2023-01-26T12:32:48.270Z,7.57
2023-01-26T12:35:17.542Z,7.97
2023-01-26T12:37:50.307Z,8.40
2023-01-26T12:40:23.269Z,9.30
2023-01-26T12:42:54.368Z,8.63
2023-01-26T12:45:26.597Z,9.47
2023-01-26T12:47:56.763Z,10.30
2023-01-26T12:50:27.093Z,9.67
2023-01-26T12:52:58.845Z,9.70
2023-01-26T12:55:29.228Z,10.67
2023-01-26T12:57:59.316Z,12.13
2023-01-26T13:00:29.863Z,10.67
2023-01-26T13:02:58.751Z,11.10
2023-01-26T13:05:28.336Z,10.77
2023-01-26T13:07:57.339Z,11.63
2023-01-26T13:10:39.805Z,10.43
2023-01-26T13:13:22.407Z,11.90
2023-01-26T13:16:10.287Z,11.37
2023-01-26T13:18:49.961Z,10.17
2023-01-26T13:21:27.188Z,11.87
2023-01-26T13:23:56.508Z,10.97
2023-01-26T13:26:42.416Z,11.17
2023-01-26T13:29:31.913Z,11.50
2023-01-26T13:32:04.426Z,10.10
2023-01-26T13:34:33.421Z,9.63
2023-01-26T13:37:05.748Z,10.33
2023-01-26T13:39:36.342Z,10.20
2023-01-26T13:42:05.078Z,11.80
2023-01-26T13:44:37.743Z,11.53
2023-01-26T13:47:08.257Z,11.17
2023-01-26T13:49:38.818Z,12.20
2023-01-26T13:52:16.027Z,11.07
2023-01-26T13:54:45.357Z,10.40
2023-01-26T13:57:13.471Z,10.63
2023-01-26T13:59:50.023Z,10.13
2023-01-26T14:02:24.712Z,11.83
2023-01-26T14:04:52.999Z,9.90
2023-01-26T14:07:21.442Z,10.27
2023-01-26T14:09:51.674Z,10.10
2023-01-26T14:12:22.065Z,10.10
2023-01-26T14:14:51.308Z,10.67
2023-01-26T14:17:26.706Z,10.23
2023-01-26T14:19:54.676Z,9.83
2023-01-26T14:22:22.634Z,10.20
2023-01-26T14:24:55.353Z,10.23
2023-01-26T14:27:40.637Z,9.30
2023-01-26T14:30:23.909Z,9.00
2023-01-26T14:32:55.901Z,9.23
2023-01-26T14:35:24.228Z,9.80
2023-01-26T14:38:05.560Z,10.27
2023-01-26T14:40:34.500Z,10.00
2023-01-26T14:43:02.213Z,11.03
2023-01-26T14:45:33.568Z,9.30
2023-01-26T14:48:02.988Z,9.43
2023-01-26T14:50:32.301Z,10.33
2023-01-26T14:53:00.149Z,9.60
2023-01-26T14:55:29.668Z,9.80
2023-01-26T14:57:59.348Z,9.93
2023-01-26T15:00:28.851Z,10.00
2023-01-26T15:02:58.876Z,9.50
2023-01-26T15:05:32.728Z,9.07
2023-01-26T15:08:01.171Z,9.50
2023-01-26T15:10:33.443Z,10.37
2023-01-26T15:13:03.576Z,9.93
2023-01-26T15:15:34.762Z,10.20
2023-01-26T15:18:03.134Z,9.27
2023-01-26T15:20:51.725Z,9.67
2023-01-26T15:23:23.601Z,9.83
2023-01-26T15:25:51.269Z,9.60
2023-01-26T15:28:23.497Z,9.87
2023-01-26T15:30:52.203Z,10.57
2023-01-26T15:33:38.633Z,9.17
2023-01-26T15:36:07.124Z,9.43
2023-01-26T15:38:35.633Z,10.77
2023-01-26T15:41:03.501Z,10.97
2023-01-26T15:43:32.438Z,9.20
2023-01-26T15:46:01.293Z,9.00
2023-01-26T15:48:31.767Z,9.50
2023-01-26T15:50:59.362Z,9.73
2023-01-26T15:53:27.031Z,9.40
2023-01-26T15:55:56.193Z,8.57
2023-01-26T15:58:24.122Z,8.50
2023-01-26T16:00:53.471Z,8.73
2023-01-26T16:03:22.420Z,9.30
2023-01-26T16:05:50.188Z,8.57
2023-01-26T16:08:18.230Z,9.47
2023-01-26T16:10:46.239Z,9.53
2023-01-26T16:13:14.658Z,12.40
2023-01-26T16:15:43.692Z,12.33
2023-01-26T16:18:13.121Z,11.63
2023-01-26T16:20:41.569Z,11.70
2023-01-26T16:23:16.393Z,10.67
2023-01-26T16:25:44.086Z,9.70
2023-01-26T16:28:11.612Z,10.80
2023-01-26T16:30:43.669Z,11.10
2023-01-26T16:33:16.999Z,11.17
2023-01-26T16:35:44.669Z,11.23
2023-01-26T16:38:13.211Z,12.20
2023-01-26T16:40:41.913Z,17.07
2023-01-26T16:43:15.310Z,18.87
2023-01-26T16:45:45.568Z,18.20
2023-01-26T16:48:15.892Z,18.43
2023-01-26T16:50:44.415Z,15.90
2023-01-26T16:53:17.618Z,10.67
2023-01-26T16:55:45.356Z,12.83
2023-01-26T16:58:12.894Z,14.47
2023-01-26T17:00:40.746Z,17.07
2023-01-26T17:03:11.890Z,16.07
2023-01-26T17:05:40.952Z,14.97
2023-01-26T17:08:08.670Z,16.27
2023-01-26T17:10:36.351Z,13.07
2023-01-26T17:13:04.170Z,12.97
2023-01-26T17:15:31.895Z,11.80
2023-01-26T17:17:59.714Z,13.37
2023-01-26T17:20:27.350Z,9.67
2023-01-26T17:22:56.962Z,8.57
2023-01-26T17:25:24.540Z,8.40
2023-01-26T17:27:52.133Z,8.67
2023-01-26T17:30:19.814Z,9.60
2023-01-26T17:32:47.775Z,9.57
2023-01-26T17:35:15.613Z,11.30
2023-01-26T17:37:43.407Z,9.20
2023-01-26T17:40:13.639Z,9.47
2023-01-26T17:42:41.122Z,10.07
2023-01-26T17:45:09.938Z,9.37
2023-01-26T17:47:38.750Z,9.63
2023-01-26T17:50:09.579Z,8.90
2023-01-26T17:52:37.079Z,8.80
2023-01-26T17:55:06.293Z,9.13
2023-01-26T17:57:35.426Z,8.90
2023-01-26T18:00:03.213Z,9.67
2023-01-26T18:02:30.898Z,8.83
2023-01-26T18:04:58.386Z,9.30
2023-01-26T18:07:26.041Z,10.37
2023-01-26T18:09:53.657Z,11.27
2023-01-26T18:12:21.075Z,11.77
2023-01-26T18:14:49.965Z,11.77
2023-01-26T18:17:17.476Z,11.47
2023-01-26T18:19:44.965Z,11.43
2023-01-26T18:22:12.450Z,12.80
2023-01-26T18:24:39.913Z,11.97
2023-01-26T18:27:07.529Z,14.03
2023-01-26T18:29:37.375Z,13.03
2023-01-26T18:32:08.727Z,10.47
2023-01-26T18:34:36.261Z,10.77
2023-01-26T18:37:06.559Z,10.60
2023-01-26T18:39:34.206Z,11.87
2023-01-26T18:42:04.581Z,12.00
2023-01-26T18:44:32.290Z,11.97
2023-01-26T18:46:59.951Z,13.03
2023-01-26T18:49:28.896Z,14.40
2023-01-26T18:51:56.385Z,13.13
2023-01-26T18:54:24.451Z,14.20
2023-01-26T18:56:52.164Z,15.60
2023-01-26T18:59:19.809Z,14.60
2023-01-26T19:01:47.415Z,14.00
2023-01-26T19:04:17.868Z,13.60
2023-01-26T19:06:47.504Z,14.37
2023-01-26T19:09:15.055Z,15.63
2023-01-26T19:11:42.476Z,15.83
2023-01-26T19:14:09.927Z,15.37
2023-01-26T19:16:37.741Z,15.20
2023-01-26T19:19:06.000Z,14.17
2023-01-26T19:21:34.195Z,14.50
2023-01-26T19:24:05.901Z,14.53
2023-01-26T19:26:33.474Z,15.33
2023-01-26T19:29:01.049Z,13.63
2023-01-26T19:31:29.005Z,14.50
2023-01-26T19:33:57.254Z,15.97
2023-01-26T19:36:25.222Z,14.73
2023-01-26T19:38:52.851Z,15.93
2023-01-26T19:41:22.494Z,16.07
2023-01-26T19:43:50.393Z,15.73
2023-01-26T19:46:18.287Z,15.67
2023-01-26T19:48:46.086Z,15.07
2023-01-26T19:51:14.718Z,16.40
2023-01-26T19:53:43.158Z,15.43
2023-01-26T19:56:11.395Z,14.80
2023-01-26T19:58:40.326Z,14.37
2023-01-26T20:01:09.086Z,15.20
2023-01-26T20:03:36.916Z,13.07
2023-01-26T20:06:04.739Z,14.97
2023-01-26T20:08:32.394Z,14.97
2023-01-26T20:11:06.164Z,13.33
2023-01-26T20:13:34.034Z,13.77
2023-01-26T20:16:03.596Z,13.63
2023-01-26T20:18:31.098Z,12.67
2023-01-26T20:21:00.860Z,14.60
2023-01-26T20:23:28.767Z,12.83
2023-01-26T20:26:01.193Z,14.97
2023-01-26T20:28:28.794Z,13.13
2023-01-26T20:30:59.735Z,13.43
2023-01-26T20:33:28.649Z,13.47
2023-01-26T20:35:56.419Z,13.03
2023-01-26T20:38:24.208Z,13.50
2023-01-26T20:40:51.854Z,13.53
2023-01-26T20:43:19.703Z,13.87
2023-01-26T20:45:47.306Z,12.63
2023-01-26T20:48:15.316Z,14.40
2023-01-26T20:50:44.982Z,13.57
2023-01-26T20:53:12.479Z,13.83
2023-01-26T20:55:39.957Z,13.00
2023-01-26T20:58:07.585Z,15.43
2023-01-26T21:00:36.652Z,14.63
2023-01-26T21:03:04.237Z,13.77
2023-01-26T21:05:31.733Z,13.77
2023-01-26T21:08:00.655Z,14.83
2023-01-26T21:10:28.087Z,14.50
2023-01-26T21:12:55.589Z,14.40
2023-01-26T21:15:23.035Z,15.33
2023-01-26T21:17:50.545Z,16.77
2023-01-26T21:20:18.137Z,26.17
2023-01-26T21:22:45.655Z,18.50
2023-01-26T21:25:14.574Z,15.23
2023-01-26T21:27:42.035Z,15.07
2023-01-26T21:30:10.581Z,13.23
2023-01-26T21:32:38.226Z,12.30
2023-01-26T21:35:06.128Z,11.90
2023-01-26T21:37:33.600Z,12.73
2023-01-26T21:40:01.159Z,10.73
2023-01-26T21:42:31.358Z,11.37
2023-01-26T21:45:14.906Z,12.53
2023-01-26T21:47:44.945Z,14.37
2023-01-26T21:50:12.744Z,13.77
2023-01-26T21:52:57.703Z,12.60
2023-01-26T21:55:25.212Z,13.63
2023-01-26T21:58:11.465Z,14.03
2023-01-26T22:00:39.411Z,13.00
2023-01-26T22:03:07.037Z,14.03
2023-01-26T22:05:35.877Z,13.23
2023-01-26T22:08:03.410Z,15.43
2023-01-26T22:10:30.982Z,13.67
2023-01-26T22:12:59.843Z,14.17
2023-01-26T22:15:27.506Z,15.10
2023-01-26T22:17:55.061Z,18.43
2023-01-26T22:20:22.753Z,20.63
2023-01-26T22:22:50.427Z,20.47
2023-01-26T22:25:17.893Z,18.50
2023-01-26T22:27:45.491Z,18.27
2023-01-26T22:30:15.030Z,19.90
2023-01-26T22:32:43.693Z,17.60
2023-01-26T22:35:11.185Z,16.07
2023-01-26T22:37:38.672Z,17.20
2023-01-26T22:40:06.732Z,15.30
2023-01-26T22:42:34.436Z,15.07
2023-01-26T22:45:04.700Z,16.47
2023-01-26T22:47:35.029Z,16.87
2023-01-26T22:50:02.812Z,16.90
2023-01-26T22:52:30.222Z,15.80
2023-01-26T22:54:57.674Z,15.87
2023-01-26T22:57:36.410Z,17.30
2023-01-26T23:00:06.044Z,16.90
2023-01-26T23:02:35.393Z,15.70
2023-01-26T23:05:03.037Z,16.40
2023-01-26T23:07:30.636Z,16.53
2023-01-26T23:09:58.137Z,16.63
2023-01-26T23:12:25.662Z,14.60
2023-01-26T23:14:59.459Z,16.10
2023-01-26T23:17:26.935Z,16.93
2023-01-26T23:19:55.824Z,15.90
2023-01-26T23:22:23.483Z,15.90
2023-01-26T23:25:13.063Z,17.47
2023-01-26T23:27:40.542Z,16.60
2023-01-26T23:30:08.468Z,15.93
2023-01-26T23:32:35.955Z,16.00
2023-01-26T23:35:05.114Z,16.43
2023-01-26T23:37:32.563Z,16.83
2023-01-26T23:40:00.036Z,18.07
2023-01-26T23:42:27.592Z,17.20
2023-01-26T23:44:55.035Z,16.90
2023-01-26T23:47:22.695Z,16.93
2023-01-26T23:49:50.227Z,17.47
2023-01-26T23:52:19.022Z,18.33
2023-01-26T23:54:46.460Z,17.80
2023-01-26T23:57:13.883Z,18.77
2023-01-26T23:59:41.314Z,19.80
